x

Half Moon Bay - 24nm Ssw Of San Francisco, Ca (46012) Wave Buoy

3:50am - Wed 7th Dec 2016 All times are PST. -8 hours from GMT.

  • Sig Wave height 8.2ft
  • Swell Direction
  • Peak Period 14s
  • Average Period 9s
  • Wind
    9mph, 11mph gusts
  • Sea Temp 55°f
  • Air Temp 51°f
  • Sea Pressure 1019.7mb
  • Half Moon Bay - 24nm Ssw Of San Francisco, Ca
  • Half Moon Bay - 24nm Ssw Of San Francisco, Ca

More Historic Weather Station data

Upgrade to MSW Pro to gain access to the past 30 days of data for over 8000 Wavebouys and Weather Stations around the globe.

Join Pro

Comparision Forecast

View Surf forecast
   
Wed 12/07 3:50am 8ft 14s 9s 9 11 mph 1019.7mb 55f 51f
2:50am 8ft 12s 8s 11 16 mph 1019.9mb 55f 51f
1:50am 7.5ft 14s 8s 13 16 mph 1020.2mb 55f 51f
12:50am 7ft 14s 7s 13 18 mph 1020.2mb 55f 51f
Tue 12/06 11:50pm 7ft 14s 7s 16 20 mph 1020.2mb 55f 52f
10:50pm 7ft 14s 7s 18 20 mph 1020.2mb 55f 52f
9:50pm 6.5ft 14s 7s 18 22 mph 1019.7mb 55f 52f
8:50pm 8ft 14s 8s 20 22 mph 1019.4mb 55f 52f
7:50pm 7ft 15s 7s 16 20 mph 1019.3mb 55f 52f
3:50pm 9ft 15s 9s 18 22 mph 1018.7mb 55f 52f
2:50pm 9ft 11s 9s 13 18 mph 1018.5mb 55f 52f
1:50pm 9ft 12s 9s 16 18 mph 1018.5mb 55f 52f
12:50pm 8.5ft 11s 9s 11 16 mph 1018.8mb 55f 52f
11:50am 7.5ft 12s 8s 11 16 mph 1019.4mb 55f 52f
8:50am 9ft 14s 7s 16 18 mph 1019.3mb 55f 52f
7:50am 8.5ft 14s 7s 20 25 mph 1018.6mb 55f 52f
6:50am 9ft 13s 7s 22 27 mph 1018.2mb 55f 52f
5:50am 10ft 13s 7s 29 34 mph 1017.6mb 55f 52f
4:50am 11ft 14s 7s 34 40 mph 1016.9mb 55f 52f
3:50am 11.5ft 8s 7s 27 31 mph 1017.1mb 55f 52f
2:50am 11ft 8s 7s 27 31 mph 1017.2mb 55f 52f
1:50am 12ft 14s 7s 27 31 mph 1017.2mb 55f 52f
12:50am 12ft 15s 7s 27 34 mph 1017.2mb 55f 52f
Mon 12/05 11:50pm 11.5ft 14s 7s 27 34 mph 1017.6mb 55f 52f
10:50pm 11.5ft 12s 7s 27 34 mph 1017.8mb 56f 53f
9:50pm 11.5ft 13s 8s 25 29 mph 1017.3mb 56f 53f
8:50pm 12ft 12s 8s 27 31 mph 1016.8mb 56f 52f
7:50pm 10.5ft 13s 7s 27 31 mph 1016.8mb 56f 53f
6:50pm 11ft 13s 8s 25 29 mph 1016.9mb 56f 53f
5:50pm 10.5ft 12s 7s 25 29 mph 1016.6mb 56f 53f
4:50pm 11ft 13s 7s 25 29 mph 1016.6mb 56f 53f
3:50pm 12.5ft 13s 8s 27 34 mph 1016.8mb 56f 53f
2:50pm 11.5ft 14s 7s 27 34 mph 1017.6mb 56f 53f
1:50pm 11ft 14s 7s 27 31 mph 1017.8mb 56f 53f
12:50pm 11ft 13s 7s 25 31 mph 1018mb 56f 53f
11:50am 11ft 12s 7s 25 31 mph 1018.5mb 56f 52f
10:50am 10ft 15s 7s 22 29 mph 1019.2mb 56f 52f
9:50am 10ft 14s 8s 22 29 mph 1019.4mb 56f 52f
8:50am 10ft 15s 8s 22 27 mph 1019.4mb 56f 53f
7:50am 9.5ft 15s 7s 25 29 mph 1018.9mb 56f 53f
6:50am 9ft 15s 7s 25 29 mph 1018.6mb 56f 53f
5:50am 9ft 13s 7s 22 29 mph 1018.1mb 56f 53f
4:50am 10ft 14s 8s 25 29 mph 1018.2mb 56f 54f
3:50am 9ft 15s 8s 22 27 mph 1018.7mb 56f 54f
2:50am 10ft 15s 8s 20 25 mph 1019.2mb 56f 54f
1:50am 10.5ft 13s 9s 18 22 mph 1019.5mb 56f 55f
12:50am 10ft 13s 9s 18 25 mph 1019.7mb 56f 55f
Sun 12/04 11:50pm 10ft 13s 9s 16 20 mph 1020.3mb 56f 54f
10:50pm 9ft 14s 8s 16 22 mph 1020.5mb 56f 55f
9:50pm 10ft 13s 9s 20 25 mph 1020.5mb 56f 55f
8:50pm 10ft 15s 8s 18 22 mph 1020.5mb 56f 55f
7:50pm 10.5ft 15s 9s 20 22 mph 1020.2mb 56f 55f
6:50pm 10ft 14s 8s 20 25 mph 1019.9mb 56f 55f
5:50pm 11ft 15s 9s 18 22 mph 1020.3mb 56f 56f
4:50pm 12ft 15s 9s 22 29 mph 1020.1mb 56f 56f
3:50pm 12ft 15s 9s 20 27 mph 1020.3mb 56f 56f
2:50pm 12ft 14s 9s 22 25 mph 1020.2mb 56f 56f
1:50pm 12.5ft 13s 9s 18 25 mph 1020.4mb 56f 55f
12:50pm 12ft 16s 9s 20 25 mph 1020.8mb 56f 55f
11:50am 14ft 16s 10s 18 22 mph 1021.3mb 56f 55f
10:50am 13ft 16s 10s 18 22 mph 1022.2mb 56f 55f
9:50am 14.5ft 16s 10s 18 20 mph 1022.3mb 56f 55f
8:50am 13.5ft 14s 10s 20 25 mph 1021.7mb 56f 55f
7:50am 15.5ft 16s 11s 22 27 mph 1021.4mb 56f 55f
6:50am 13ft 17s 10s 20 25 mph 1021.1mb 56f 55f
5:50am 12.5ft 16s 9s 18 22 mph 1020.6mb 56f 55f
4:50am 15.5ft 16s 10s 20 27 mph 1020.5mb 56f 55f
3:50am 13ft 14s 9s 20 25 mph 1020.6mb 56f 55f
2:50am 15ft 16s 10s 18 27 mph 1021mb 56f 55f
1:50am 16ft 16s 10s 20 27 mph 1021.2mb 56f 55f
12:50am 13.5ft 16s 9s 22 27 mph 1021.5mb 56f 55f
Sat 12/03 11:50pm 14.5ft 17s 10s 20 25 mph 1021.9mb 56f 55f
10:50pm 13ft 17s 9s 18 25 mph 1022.1mb 56f 55f
9:50pm 12ft 17s 8s 20 25 mph 1021.7mb 56f 55f
8:50pm 12.5ft 17s 8s 20 25 mph 1021.7mb 56f 55f
7:50pm 12.5ft 17s 8s 22 25 mph 1021.6mb 56f 55f
6:50pm 13ft 17s 9s 22 29 mph 1021.6mb 56f 55f
5:50pm 11ft 17s 8s 25 29 mph 1021.5mb 56f 55f
4:50pm 11ft 19s 8s 22 29 mph 1021.9mb 56f 55f
3:50pm 11ft 19s 8s 25 29 mph 1021.9mb 56f 55f
2:50pm 10.5ft 19s 8s 20 27 mph 1022.3mb 56f 55f
1:50pm 9.5ft 19s 7s 22 27 mph 1022.6mb 56f 55f
12:50pm 11ft 19s 8s 25 29 mph 1023mb 56f 55f